Time;durP1;ratioP1;P1;durP2;ratioP2;P2;SDS_P1;SDS_P2;PMS_P1;PMS_P2;Temp;Humidity;BMP_temperature;BMP_pressure;BME280_temperature;BME280_humidity;BME280_pressure;Samples;Min_cycle;Max_cycle;Signal;HPM_P1;HPM_P2
2023/01/06 07:40:34;;;;;;;32.45;27.50;;;10.70;99.90;;;;;;5284903;27;20464;-80
2023/01/06 07:43:06;;;;;;;36.22;29.40;;;10.60;99.90;;;;;;5181752;27;20087;-78
2023/01/06 07:45:37;;;;;;;35.30;27.48;;;10.70;99.90;;;;;;5260595;28;20813;-80
2023/01/06 07:48:09;;;;;;;38.03;31.52;;;10.70;99.90;;;;;;5245090;28;20029;-81
2023/01/06 07:50:40;;;;;;;33.63;29.25;;;10.70;99.90;;;;;;5245107;28;20032;-78
2023/01/06 07:53:11;;;;;;;34.72;29.00;;;10.70;99.90;;;;;;5245164;28;20108;-81
2023/01/06 07:55:50;;;;;;;35.33;30.45;;;10.70;99.90;;;;;;5245007;28;20439;-80
2023/01/06 07:58:24;;;;;;;41.17;31.42;;;10.70;99.90;;;;;;5255499;28;20108;-78
2023/01/06 08:00:55;;;;;;;37.28;29.00;;;10.80;99.90;;;;;;5265868;28;20475;-81
2023/01/06 08:03:26;;;;;;;36.92;29.48;;;10.90;99.90;;;;;;5265962;28;20024;-81
2023/01/06 08:05:56;;;;;;;33.60;26.30;;;11.00;99.90;;;;;;5262384;28;20480;-79
2023/01/06 08:08:27;;;;;;;35.38;27.35;;;11.10;99.90;;;;;;5265740;28;20074;-78
2023/01/06 08:10:58;;;;;;;33.70;27.13;;;11.60;99.90;;;;;;5264611;28;20567;-81
2023/01/06 08:13:29;;;;;;;35.53;28.45;;;11.60;99.90;;;;;;5265498;28;20064;-80
2023/01/06 08:16:04;;;;;;;35.70;30.02;;;11.90;99.90;;;;;;5265472;28;20055;-79
2023/01/06 08:18:36;;;;;;;34.40;25.63;;;11.70;99.90;;;;;;5265438;28;20020;-80
2023/01/06 08:21:10;;;;;;;36.40;28.02;;;12.20;99.90;;;;;;5265461;28;20119;-80
2023/01/06 08:23:40;;;;;;;37.75;27.52;;;12.40;99.90;;;;;;5265773;28;20017;-80
2023/01/06 08:26:14;;;;;;;33.97;24.20;;;11.60;99.90;;;;;;5265493;28;20020;-80
2023/01/06 08:28:46;;;;;;;31.27;23.73;;;11.90;99.90;;;;;;5265471;28;20424;-81
2023/01/06 08:31:19;;;;;;;30.83;24.80;;;12.10;99.90;;;;;;5265165;28;20044;-81
2023/01/06 08:33:53;;;;;;;32.55;25.08;;;12.30;99.90;;;;;;5265377;28;20107;-80
2023/01/06 08:36:24;;;;;;;34.17;27.10;;;12.30;99.90;;;;;;5265190;28;20099;-79
2023/01/06 08:38:55;;;;;;;32.70;22.75;;;12.20;99.90;;;;;;5264851;28;20086;-81
2023/01/06 08:41:26;;;;;;;28.63;22.23;;;12.20;99.90;;;;;;5265284;28;20028;-79
2023/01/06 08:43:57;;;;;;;29.90;20.05;;;12.60;99.90;;;;;;5263922;28;20193;-81
2023/01/06 08:46:28;;;;;;;24.73;20.90;;;12.70;99.90;;;;;;5265140;28;20456;-79
2023/01/06 08:48:59;;;;;;;23.95;20.00;;;12.80;99.90;;;;;;5265076;28;20016;-79
2023/01/06 08:51:30;;;;;;;24.73;20.40;;;13.10;99.90;;;;;;5253259;28;20032;-81
2023/01/06 08:54:01;;;;;;;24.88;20.20;;;13.00;99.90;;;;;;5251064;28;20024;-77
2023/01/06 08:56:32;;;;;;;24.80;20.08;;;13.10;99.90;;;;;;5251167;28;20031;-78
2023/01/06 08:59:04;;;;;;;29.92;20.42;;;13.40;99.90;;;;;;5250674;28;20037;-81
2023/01/06 09:01:36;;;;;;;26.65;19.38;;;13.30;99.90;;;;;;5250843;28;20511;-78
2023/01/06 09:04:08;;;;;;;22.73;18.45;;;13.10;99.90;;;;;;5250913;28;20460;-78
2023/01/06 09:06:41;;;;;;;23.48;18.58;;;13.10;99.90;;;;;;5249299;28;20064;-81
2023/01/06 09:09:12;;;;;;;22.42;18.27;;;13.60;99.90;;;;;;5252577;28;20128;-79
2023/01/06 09:11:44;;;;;;;24.42;18.67;;;13.30;99.90;;;;;;5250615;28;20528;-78
2023/01/06 09:14:15;;;;;;;21.13;17.17;;;13.50;99.90;;;;;;5250620;28;20063;-79
2023/01/06 09:16:47;;;;;;;22.98;17.35;;;13.60;99.90;;;;;;5250243;28;20460;-79
2023/01/06 09:19:19;;;;;;;22.20;16.52;;;13.40;99.90;;;;;;5244468;28;20041;-80
2023/01/06 09:21:50;;;;;;;20.35;15.40;;;13.30;99.90;;;;;;5250178;28;20017;-79
2023/01/06 09:24:21;;;;;;;22.92;18.45;;;13.60;99.90;;;;;;5250361;28;20116;-78
2023/01/06 09:26:52;;;;;;;22.02;16.55;;;13.60;99.90;;;;;;5250009;28;20425;-79
2023/01/06 09:29:23;;;;;;;18.27;15.52;;;13.80;99.90;;;;;;5247415;28;20039;-80
2023/01/06 09:31:54;;;;;;;23.08;17.98;;;14.10;99.90;;;;;;5245590;28;20030;-79
2023/01/06 09:34:25;;;;;;;19.00;15.60;;;14.40;99.90;;;;;;5248840;28;20027;-79
2023/01/06 09:36:55;;;;;;;18.45;14.68;;;14.60;99.90;;;;;;5248905;28;20021;-79
2023/01/06 09:39:26;;;;;;;18.13;14.82;;;15.00;99.90;;;;;;5248353;28;20064;-79
2023/01/06 09:42:23;;;;;;;20.40;15.85;;;14.90;99.90;;;;;;5247320;28;20032;-79
2023/01/06 09:45:02;;;;;;;21.27;16.73;;;14.50;99.90;;;;;;5249937;28;20021;-78
2023/01/06 09:47:43;;;;;;;18.88;15.10;;;14.40;99.90;;;;;;5249998;28;20029;-79
2023/01/06 09:50:29;;;;;;;21.80;16.55;;;14.70;99.90;;;;;;5249962;28;20476;-79
2023/01/06 09:53:24;;;;;;;17.77;14.40;;;14.40;99.90;;;;;;5249679;28;20090;-79
2023/01/06 09:56:03;;;;;;;15.98;14.02;;;14.60;99.90;;;;;;5242654;28;20035;-80
2023/01/06 09:58:41;;;;;;;16.70;13.63;;;14.50;99.90;;;;;;5229457;28;20079;-78
2023/01/06 10:01:16;;;;;;;17.17;14.02;;;14.50;99.90;;;;;;5249428;28;20024;-80
2023/01/06 10:03:47;;;;;;;18.80;14.25;;;14.20;99.90;;;;;;5248731;28;20025;-79
2023/01/06 10:06:36;;;;;;;18.65;12.88;;;15.00;99.90;;;;;;5249432;28;20032;-79
2023/01/06 10:09:30;;;;;;;17.92;13.23;;;14.70;99.90;;;;;;5249083;28;20373;-79
2023/01/06 10:12:35;;;;;;;17.73;12.38;;;15.00;99.90;;;;;;5249415;28;20027;-78
2023/01/06 10:15:51;;;;;;;14.77;11.98;;;14.90;99.90;;;;;;5249274;28;20032;-79
2023/01/06 10:18:52;;;;;;;15.02;11.10;;;15.40;99.90;;;;;;5205686;28;20044;-78
2023/01/06 10:21:29;;;;;;;15.50;11.05;;;15.60;99.90;;;;;;5205933;28;20518;-79
2023/01/06 10:24:21;;;;;;;20.70;13.13;;;15.00;99.90;;;;;;5205748;28;20414;-79
2023/01/06 10:27:19;;;;;;;16.63;12.40;;;15.80;99.90;;;;;;5199199;28;20508;-79
2023/01/06 10:29:53;;;;;;;14.45;10.60;;;15.70;99.90;;;;;;5204540;28;20037;-78
2023/01/06 10:32:29;;;;;;;13.73;11.05;;;15.70;99.90;;;;;;5205187;28;20120;-77
2023/01/06 10:35:01;;;;;;;17.55;11.95;;;16.10;99.90;;;;;;5188301;28;20021;-77
2023/01/06 10:37:39;;;;;;;14.95;10.40;;;16.20;99.90;;;;;;5204942;28;20061;-76
2023/01/06 10:40:24;;;;;;;12.00;10.25;;;16.70;99.90;;;;;;5188350;28;20056;-79
2023/01/06 10:43:02;;;;;;;12.30;9.65;;;17.00;99.90;;;;;;5204945;28;20060;-77
2023/01/06 10:45:42;;;;;;;14.05;10.55;;;17.00;99.90;;;;;;5188782;28;20083;-77
2023/01/06 10:48:14;;;;;;;31.80;22.90;;;16.80;99.90;;;;;;5194870;28;20733;-77
2023/01/06 10:50:45;;;;;;;12.27;9.73;;;16.90;99.90;;;;;;5244153;28;20036;-79
2023/01/06 10:53:16;;;;;;;12.30;9.73;;;16.80;99.90;;;;;;5239926;28;20512;-77
2023/01/06 10:55:56;;;;;;;15.50;10.13;;;17.00;99.90;;;;;;5242616;28;20115;-78
2023/01/06 10:58:51;;;;;;;13.60;10.02;;;16.70;99.90;;;;;;5230706;28;20051;-78
2023/01/06 11:01:24;;;;;;;10.63;8.75;;;17.10;99.90;;;;;;5242519;28;20455;-77
2023/01/06 11:04:08;;;;;;;10.15;8.48;;;17.20;99.90;;;;;;5248369;28;20100;-77
2023/01/06 11:06:44;;;;;;;10.75;9.13;;;17.30;99.90;;;;;;5232207;28;20039;-78
2023/01/06 11:09:38;;;;;;;12.02;9.30;;;17.10;99.90;;;;;;5247983;28;20028;-77
2023/01/06 11:12:19;;;;;;;10.68;8.90;;;17.10;99.90;;;;;;5248203;28;20021;-77
2023/01/06 11:15:05;;;;;;;11.50;8.35;;;17.20;98.30;;;;;;5233864;28;20035;-78
2023/01/06 11:17:36;;;;;;;12.52;8.82;;;17.10;99.90;;;;;;5248359;28;20061;-77
2023/01/06 11:20:13;;;;;;;11.85;8.60;;;16.90;99.90;;;;;;5248165;28;20076;-77
2023/01/06 11:22:44;;;;;;;12.23;8.35;;;17.10;99.90;;;;;;5247931;28;20017;-77
2023/01/06 11:25:21;;;;;;;10.30;8.20;;;17.70;99.90;;;;;;5248241;28;20381;-77
2023/01/06 11:28:12;;;;;;;15.00;8.93;;;17.80;97.50;;;;;;5247834;28;20035;-77
2023/01/06 11:30:53;;;;;;;11.43;8.73;;;18.00;99.90;;;;;;5242919;28;20040;-77
2023/01/06 11:33:26;;;;;;;10.70;9.00;;;17.70;99.90;;;;;;5247910;28;20054;-78
2023/01/06 11:35:58;;;;;;;11.60;9.38;;;18.20;99.30;;;;;;5247874;28;20035;-77
2023/01/06 11:38:29;;;;;;;12.40;9.45;;;18.30;98.10;;;;;;5247472;28;20063;-77
2023/01/06 11:41:08;;;;;;;12.80;9.27;;;18.40;96.50;;;;;;5247912;28;20028;-78
2023/01/06 11:43:44;;;;;;;12.57;7.73;;;18.30;97.10;;;;;;5249174;28;20024;-77
2023/01/06 11:46:15;;;;;;;9.63;7.68;;;17.90;94.00;;;;;;5247971;28;20365;-78
2023/01/06 11:49:01;;;;;;;9.73;8.10;;;18.20;95.50;;;;;;5247697;28;20032;-77
2023/01/06 11:51:41;;;;;;;13.32;8.60;;;17.90;95.70;;;;;;5245039;28;20036;-79
2023/01/06 11:54:35;;;;;;;9.55;7.32;;;17.90;93.00;;;;;;5234000;28;20380;-79
2023/01/06 11:57:15;;;;;;;10.90;8.45;;;18.60;93.70;;;;;;5247069;28;20480;-80
2023/01/06 11:59:55;;;;;;;;;;;19.10;96.60;;;;;;5247416;28;20074;-77
2023/01/06 12:02:47;;;;;;;11.93;9.98;;;18.90;97.00;;;;;;5234346;28;19916;-80
2023/01/06 12:05:31;;;;;;;10.98;8.63;;;18.80;96.70;;;;;;5247299;28;20116;-79
2023/01/06 12:08:23;;;;;;;9.98;8.00;;;18.40;97.90;;;;;;5245658;28;20063;-81
2023/01/06 12:11:06;;;;;;;12.40;8.20;;;18.80;92.50;;;;;;5242038;28;20021;-79
2023/01/06 12:13:39;;;;;;;8.10;6.90;;;18.70;96.00;;;;;;5242252;28;20099;-79
2023/01/06 12:16:43;;;;;;;8.57;6.40;;;18.70;95.70;;;;;;5247070;28;20023;-79
2023/01/06 12:19:22;;;;;;;8.30;5.80;;;18.30;95.30;;;;;;5246719;28;20094;-79
2023/01/06 12:21:54;;;;;;;5.60;5.00;;;18.40;91.10;;;;;;5247425;28;20533;-78
2023/01/06 12:24:28;;;;;;;8.00;4.60;;;18.10;91.40;;;;;;5247255;28;20025;-78
2023/01/06 12:27:04;;;;;;;6.03;4.63;;;17.50;89.90;;;;;;5250289;28;20024;-77
2023/01/06 12:29:37;;;;;;;6.32;4.00;;;16.70;91.30;;;;;;5251301;28;20028;-78
2023/01/06 12:32:27;;;;;;;6.72;3.45;;;16.70;94.00;;;;;;5250948;28;20032;-78
2023/01/06 12:35:01;;;;;;;3.75;3.05;;;16.50;93.10;;;;;;5235166;28;20032;-77
2023/01/06 12:37:42;;;;;;;5.50;3.22;;;16.20;93.50;;;;;;5250713;28;20147;-77
2023/01/06 12:40:16;;;;;;;5.15;3.55;;;16.10;93.80;;;;;;5249080;28;20090;-77
2023/01/06 12:43:04;;;;;;;6.22;3.75;;;16.10;94.10;;;;;;5249711;28;20028;-78
2023/01/06 12:45:59;;;;;;;6.13;3.25;;;16.60;93.70;;;;;;5250616;28;20361;-78
2023/01/06 12:48:41;;;;;;;5.72;3.63;;;16.20;95.40;;;;;;5248307;28;20211;-79
2023/01/06 12:51:40;;;;;;;7.00;3.83;;;15.90;96.40;;;;;;5249272;28;20100;-79
2023/01/06 12:54:26;;;;;;;4.50;3.40;;;15.70;99.90;;;;;;5250551;28;20407;-78
2023/01/06 12:57:17;;;;;;;4.85;3.03;;;15.60;99.90;;;;;;5250912;28;20039;-77
2023/01/06 13:00:02;;;;;;;5.30;3.22;;;15.60;99.90;;;;;;5249413;28;20044;-76
2023/01/06 13:02:48;;;;;;;6.32;3.65;;;15.30;99.90;;;;;;5249204;28;20479;-80
2023/01/06 13:05:18;;;;;;;3.25;2.80;;;15.00;99.90;;;;;;5250732;28;20396;-79
2023/01/06 13:08:17;;;;;;;5.65;3.15;;;14.90;99.90;;;;;;5243979;28;20009;-79
2023/01/06 13:11:02;;;;;;;5.32;3.13;;;14.80;99.90;;;;;;5235547;28;20091;-80
2023/01/06 13:14:20;;;;;;;5.45;3.50;;;14.90;99.90;;;;;;5246727;28;20032;-80
2023/01/06 13:17:03;;;;;;;6.40;3.22;;;20.70;91.90;;;;;;5231185;28;20115;-80
2023/01/06 13:19:46;;;;;;;5.43;4.47;;;26.20;64.40;;;;;;5249862;28;20056;-78
2023/01/06 13:22:36;;;;;;;6.85;3.00;;;19.90;70.80;;;;;;5248222;28;20475;-77
2023/01/06 13:25:24;;;;;;;5.25;3.20;;;16.00;95.50;;;;;;5248935;28;20063;-78
2023/01/06 13:28:03;;;;;;;4.80;2.70;;;15.30;99.60;;;;;;5249956;28;20020;-77
2023/01/06 13:30:56;;;;;;;6.80;3.50;;;15.00;99.90;;;;;;5234733;28;20024;-77
2023/01/06 13:33:51;;;;;;;6.78;2.60;;;16.60;97.40;;;;;;5248616;28;20464;-77
2023/01/06 13:36:43;;;;;;;4.78;2.92;;;17.50;99.90;;;;;;5249713;28;20094;-78
2023/01/06 13:39:21;;;;;;;5.95;3.28;;;15.60;99.90;;;;;;5256669;28;20048;-78
2023/01/06 13:41:56;;;;;;;4.30;3.08;;;15.30;99.90;;;;;;5247916;28;20025;-80
2023/01/06 13:44:30;;;;;;;5.03;2.90;;;15.00;99.90;;;;;;5248019;28;20031;-80
2023/01/06 13:47:10;;;;;;;5.20;3.40;;;14.20;99.90;;;;;;5249383;28;20019;-78
2023/01/06 13:49:42;;;;;;;27.88;19.45;;;14.00;99.90;;;;;;5248249;28;20430;-79
2023/01/06 13:52:22;;;;;;;27.38;21.17;;;13.90;99.90;;;;;;5248905;28;20036;-81
2023/01/06 13:55:06;;;;;;;8.80;5.00;;;13.90;99.90;;;;;;5249773;28;20040;-77
2023/01/06 13:57:39;;;;;;;8.65;4.45;;;13.70;99.90;;;;;;5248078;28;20456;-78
2023/01/06 14:00:18;;;;;;;10.43;5.68;;;13.90;99.90;;;;;;5249441;28;20036;-78
2023/01/06 14:02:49;;;;;;;8.00;5.40;;;13.90;99.90;;;;;;5249466;28;20024;-78
2023/01/06 14:05:20;;;;;;;9.85;4.82;;;13.60;99.90;;;;;;5249278;28;20111;-80
2023/01/06 14:08:00;;;;;;;9.18;5.13;;;13.40;99.90;;;;;;5249316;28;20419;-79
2023/01/06 14:10:35;;;;;;;5.07;4.07;;;13.10;99.90;;;;;;5249118;28;20033;-78
2023/01/06 14:13:22;;;;;;;4.80;3.70;;;13.00;99.90;;;;;;5248049;28;20382;-80
2023/01/06 14:16:14;;;;;;;5.72;3.38;;;13.10;99.90;;;;;;5248292;28;20025;-78
2023/01/06 14:18:51;;;;;;;6.35;4.32;;;12.70;99.90;;;;;;5248739;28;20429;-80
2023/01/06 14:21:31;;;;;;;6.72;3.35;;;12.40;99.90;;;;;;5249250;28;20021;-79
2023/01/06 14:24:17;;;;;;;6.60;2.78;;;12.40;99.90;;;;;;5249128;28;20059;-81
2023/01/06 14:26:59;;;;;;;6.10;2.90;;;12.40;99.90;;;;;;5247634;28;20897;-81
2023/01/06 14:29:42;;;;;;;13.07;4.85;;;12.20;99.90;;;;;;5248931;28;20440;-81
2023/01/06 14:32:13;;;;;;;16.38;11.80;;;12.10;99.90;;;;;;5249023;28;20031;-81
2023/01/06 14:34:51;;;;;;;11.02;6.07;;;12.10;99.90;;;;;;5249308;28;20020;-81
2023/01/06 14:37:46;;;;;;;8.23;3.55;;;12.30;99.90;;;;;;5246377;28;20115;-78
2023/01/06 14:40:23;;;;;;;7.13;3.53;;;11.60;99.90;;;;;;5247490;28;20052;-78
2023/01/06 14:42:57;;;;;;;4.72;3.05;;;11.70;99.90;;;;;;5249174;28;20480;-77
2023/01/06 14:45:36;;;;;;;8.13;3.60;;;11.70;99.90;;;;;;5249012;28;20024;-80
2023/01/06 14:48:15;;;;;;;6.45;3.03;;;11.70;99.90;;;;;;5248465;28;20111;-81
2023/01/06 14:50:54;;;;;;;22.75;10.27;;;11.80;99.90;;;;;;5248745;28;20017;-79
2023/01/06 14:53:31;;;;;;;56.50;42.30;;;11.50;99.90;;;;;;5247570;28;20465;-78
2023/01/06 14:56:03;;;;;;;9.93;4.03;;;11.60;99.90;;;;;;5248602;28;20460;-77
2023/01/06 14:58:35;;;;;;;5.28;3.25;;;11.20;99.90;;;;;;5245332;28;20039;-77
2023/01/06 15:01:18;;;;;;;8.35;3.42;;;11.40;99.90;;;;;;5248585;28;20078;-78
2023/01/06 15:03:55;;;;;;;7.80;4.60;;;11.30;99.90;;;;;;5248534;28;20032;-78
2023/01/06 15:06:28;;;;;;;9.95;8.15;;;10.90;99.90;;;;;;5248289;28;20054;-77
2023/01/06 15:09:19;;;;;;;21.30;12.15;;;10.80;99.90;;;;;;5257408;28;20036;-78
2023/01/06 15:11:50;;;;;;;8.60;4.38;;;10.70;99.90;;;;;;5248523;28;20024;-78
2023/01/06 15:14:32;;;;;;;7.72;4.93;;;10.50;99.90;;;;;;5248272;28;20024;-77
2023/01/06 15:17:05;;;;;;;8.15;4.22;;;10.70;99.90;;;;;;5231043;28;20107;-79
2023/01/06 15:19:36;;;;;;;9.52;4.75;;;10.60;99.90;;;;;;5248172;28;20044;-78
2023/01/06 15:22:08;;;;;;;39.88;31.23;;;10.40;99.90;;;;;;5246871;28;20025;-79
2023/01/06 15:24:41;;;;;;;10.90;7.68;;;10.30;99.90;;;;;;5247854;28;20092;-77
2023/01/06 15:27:14;;;;;;;52.17;42.40;;;10.20;99.90;;;;;;5229858;28;20017;-82
2023/01/06 15:29:54;;;;;;;18.45;13.10;;;10.10;99.90;;;;;;5246868;28;20043;-84
2023/01/06 15:32:26;;;;;;;18.80;10.82;;;10.10;99.90;;;;;;5247848;28;20349;-80
2023/01/06 15:34:58;;;;;;;10.68;6.05;;;10.10;99.90;;;;;;5247635;28;20029;-81
2023/01/06 15:37:33;;;;;;;8.75;4.75;;;9.90;99.90;;;;;;5247527;28;20158;-80
2023/01/06 15:40:05;;;;;;;21.88;18.88;;;9.30;99.90;;;;;;5247718;28;20053;-80
2023/01/06 15:42:38;;;;;;;17.65;13.02;;;9.50;99.90;;;;;;5247889;28;20059;-76
2023/01/06 15:45:34;;;;;;;12.05;7.30;;;9.50;99.90;;;;;;5247718;28;20545;-78
2023/01/06 15:48:30;;;;;;;6.60;5.20;;;9.50;99.90;;;;;;5232746;28;20020;-81
2023/01/06 15:51:09;;;;;;;5.97;3.15;;;9.20;99.90;;;;;;5247567;28;20082;-80
2023/01/06 15:53:41;;;;;;;4.80;2.90;;;9.20;99.90;;;;;;5246264;28;20434;-80
2023/01/06 15:56:21;;;;;;;6.75;2.78;;;9.30;99.90;;;;;;5248687;28;20100;-80
2023/01/06 15:58:53;;;;;;;;;;;9.20;99.90;;;;;;5246939;28;20032;-80
2023/01/06 16:01:25;;;;;;;4.22;2.85;;;9.20;99.90;;;;;;5250138;28;19932;-80
2023/01/06 16:03:59;;;;;;;11.32;4.28;;;9.30;99.90;;;;;;5251676;28;20432;-80
2023/01/06 16:06:32;;;;;;;5.40;3.22;;;9.00;99.90;;;;;;5250544;28;20064;-77
2023/01/06 16:09:29;;;;;;;4.45;2.53;;;8.60;99.90;;;;;;5251488;28;20041;-81
2023/01/06 16:12:03;;;;;;;7.85;5.68;;;8.70;99.90;;;;;;5251651;28;20116;-80
2023/01/06 16:14:42;;;;;;;15.80;12.77;;;8.70;99.90;;;;;;5236711;28;20020;-80
2023/01/06 16:17:28;;;;;;;7.15;4.40;;;8.90;99.90;;;;;;5251608;28;20025;-81
2023/01/06 16:20:22;;;;;;;5.78;3.05;;;9.00;99.90;;;;;;5251587;28;20025;-77
2023/01/06 16:22:54;;;;;;;5.28;3.10;;;8.80;99.90;;;;;;5237783;28;20017;-81
2023/01/06 16:25:30;;;;;;;9.80;3.67;;;8.70;99.90;;;;;;5208036;28;20041;-80
2023/01/06 16:28:03;;;;;;;4.10;3.05;;;8.70;99.90;;;;;;5247667;28;20021;-81
2023/01/06 16:30:35;;;;;;;5.03;3.10;;;8.60;99.90;;;;;;5248296;28;20576;-81
2023/01/06 16:33:55;;;;;;;4.80;3.00;;;8.60;99.90;;;;;;5245652;28;20044;-82
2023/01/06 16:36:26;;;;;;;4.20;2.97;;;8.60;99.90;;;;;;5221548;28;20063;-81
2023/01/06 16:38:57;;;;;;;8.65;3.58;;;8.80;99.90;;;;;;5250679;28;20044;-81
2023/01/06 16:41:28;;;;;;;7.25;3.75;;;8.40;99.90;;;;;;5251263;28;20031;-81
2023/01/06 16:43:58;;;;;;;8.60;6.18;;;8.20;99.90;;;;;;5251209;28;20023;-80
2023/01/06 16:46:29;;;;;;;4.85;3.80;;;8.30;99.90;;;;;;5249739;28;20032;-78
2023/01/06 16:49:07;;;;;;;5.70;3.30;;;8.20;99.90;;;;;;5251018;28;20031;-79
2023/01/06 16:51:39;;;;;;;7.88;5.03;;;8.40;99.90;;;;;;5251207;28;20103;-83
2023/01/06 16:54:12;;;;;;;6.60;3.33;;;8.10;99.90;;;;;;5251108;28;20021;-84
2023/01/06 16:56:48;;;;;;;7.15;3.70;;;8.30;99.90;;;;;;5250918;28;20407;-79
2023/01/06 16:59:22;;;;;;;6.00;3.50;;;8.30;99.90;;;;;;5250953;28;20422;-82
2023/01/06 17:01:54;;;;;;;7.10;5.38;;;8.20;99.90;;;;;;5250928;28;20383;-80
2023/01/06 17:04:27;;;;;;;5.07;2.95;;;8.10;99.90;;;;;;5250947;28;20028;-80
2023/01/06 17:06:59;;;;;;;6.72;3.30;;;8.00;99.90;;;;;;5250573;28;20032;-82
2023/01/06 17:09:31;;;;;;;7.63;3.50;;;8.10;99.90;;;;;;5250980;28;20365;-81
2023/01/06 17:13:33;;;;;;;7.05;3.15;;;8.30;99.90;;;;;;5249374;28;20078;-78
2023/01/06 17:15:04;;;;;;;6.32;3.15;;;8.10;99.90;;;;;;5244590;28;20036;-82
2023/01/06 17:17:41;;;;;;;5.18;3.47;;;7.80;99.90;;;;;;5249334;28;20028;-78
2023/01/06 17:20:12;;;;;;;11.77;9.02;;;7.90;99.90;;;;;;5245441;28;20024;-80
2023/01/06 17:22:43;;;;;;;7.85;3.22;;;8.30;99.90;;;;;;5245168;28;20427;-84
2023/01/06 17:25:14;;;;;;;10.45;3.67;;;8.20;99.90;;;;;;5245254;28;20060;-79
2023/01/06 17:27:47;;;;;;;7.47;4.10;;;8.20;99.90;;;;;;5228530;28;20021;-85
2023/01/06 17:30:18;;;;;;;6.32;4.90;;;8.20;99.90;;;;;;5228553;28;20025;-88
2023/01/06 17:32:50;;;;;;;9.13;4.78;;;8.30;99.90;;;;;;5250152;28;20024;-81
2023/01/06 17:35:27;;;;;;;12.73;4.55;;;8.50;99.90;;;;;;5250684;28;20074;-86
2023/01/06 17:38:01;;;;;;;11.50;4.80;;;8.30;99.90;;;;;;5250566;28;20455;-87
2023/01/06 17:40:35;;;;;;;9.57;5.82;;;8.50;99.90;;;;;;5248864;28;20075;-81
2023/01/06 17:43:16;;;;;;;10.60;6.00;;;8.50;99.90;;;;;;5249600;28;20017;-80
2023/01/06 17:45:47;;;;;;;6.97;5.13;;;8.60;99.90;;;;;;5250411;28;20029;-83
2023/01/06 17:48:18;;;;;;;10.93;6.20;;;8.50;99.90;;;;;;5250197;28;20415;-83
2023/01/06 17:50:54;;;;;;;10.50;6.20;;;8.60;99.90;;;;;;5249535;28;20033;-78
2023/01/06 17:56:25;;;;;;;9.48;6.13;;;8.60;99.90;;;;;;5250166;28;20518;-84
2023/01/06 17:59:04;;;;;;;9.68;6.28;;;8.50;99.90;;;;;;5247949;28;20036;-83
2023/01/06 18:01:36;;;;;;;11.02;6.32;;;8.70;99.90;;;;;;5248578;28;20033;-78
2023/01/06 18:04:14;;;;;;;13.77;7.30;;;8.60;99.90;;;;;;5249760;28;20061;-79
2023/01/06 18:06:51;;;;;;;12.43;8.10;;;8.20;99.90;;;;;;5249534;28;20539;-78
2023/01/06 18:09:24;;;;;;;10.88;7.15;;;8.30;99.90;;;;;;5244206;28;20488;-78
2023/01/06 18:12:01;;;;;;;13.15;7.75;;;8.30;99.90;;;;;;5227548;28;20021;-78
2023/01/06 18:14:40;;;;;;;12.27;8.13;;;8.50;99.90;;;;;;5229077;28;20025;-81
2023/01/06 18:17:31;;;;;;;13.10;8.60;;;8.50;99.90;;;;;;5228885;28;20086;-79
2023/01/06 18:20:02;;;;;;;27.52;17.52;;;8.00;99.90;;;;;;5228814;28;20035;-80
2023/01/06 18:22:36;;;;;;;25.27;14.43;;;8.30;99.90;;;;;;5228410;28;20029;-77
2023/01/06 18:25:17;;;;;;;21.48;12.35;;;8.30;99.90;;;;;;5226938;28;20060;-78
2023/01/06 18:27:50;;;;;;;17.80;11.93;;;8.00;99.90;;;;;;5227050;28;20031;-78
2023/01/06 18:30:23;;;;;;;20.85;11.50;;;8.20;99.90;;;;;;5228620;28;20500;-78
2023/01/06 18:32:55;;;;;;;19.83;11.05;;;7.90;99.90;;;;;;5227248;28;20029;-84
2023/01/06 18:35:27;;;;;;;31.73;21.60;;;7.90;99.90;;;;;;5227340;28;20423;-84
2023/01/06 18:38:01;;;;;;;21.38;12.73;;;7.60;99.90;;;;;;5227793;28;20120;-78
2023/01/06 18:40:32;;;;;;;15.18;10.00;;;7.60;99.90;;;;;;5226920;28;20041;-82
2023/01/06 18:43:26;;;;;;;14.75;10.02;;;7.80;99.90;;;;;;5243654;28;20116;-82
2023/01/06 18:46:01;;;;;;;12.90;9.40;;;7.60;99.90;;;;;;5228259;28;20021;-82
2023/01/06 18:48:33;;;;;;;13.20;9.02;;;7.70;99.90;;;;;;5242648;28;20157;-77
2023/01/06 18:51:22;;;;;;;15.25;8.82;;;7.80;99.90;;;;;;5247519;28;20120;-79
2023/01/06 18:53:54;;;;;;;16.25;8.57;;;7.60;99.90;;;;;;5247756;28;20028;-84
2023/01/06 18:56:26;;;;;;;12.55;8.48;;;7.70;99.90;;;;;;5248640;28;20070;-84
2023/01/06 18:59:01;;;;;;;15.23;9.15;;;7.80;99.90;;;;;;5247580;28;20032;-82
2023/01/06 19:01:45;;;;;;;13.07;8.20;;;7.60;99.90;;;;;;5248667;28;20119;-83
2023/01/06 19:04:36;;;;;;;15.38;8.52;;;7.60;99.90;;;;;;5247480;28;20451;-83
2023/01/06 19:07:29;;;;;;;16.58;10.00;;;7.50;99.90;;;;;;5248851;28;20031;-77
2023/01/06 19:10:04;;;;;;;19.27;9.43;;;7.50;99.90;;;;;;5248652;28;20024;-85
2023/01/06 19:12:35;;;;;;;18.52;11.15;;;7.60;99.90;;;;;;5248779;28;20026;-77
2023/01/06 19:15:23;;;;;;;25.48;17.05;;;7.20;99.90;;;;;;5247327;28;20021;-82
2023/01/06 19:17:54;;;;;;;15.63;9.50;;;7.10;99.90;;;;;;5247174;28;20024;-81
2023/01/06 19:20:30;;;;;;;15.88;10.52;;;7.30;99.90;;;;;;5248388;28;20040;-81
2023/01/06 19:23:15;;;;;;;12.82;9.80;;;7.40;99.90;;;;;;5248858;28;20016;-81
2023/01/06 19:25:51;;;;;;;20.00;10.65;;;7.50;99.90;;;;;;5248498;28;20435;-83
2023/01/06 19:28:30;;;;;;;14.57;10.40;;;7.40;99.90;;;;;;5248671;28;20353;-77
2023/01/06 19:31:13;;;;;;;18.88;11.93;;;7.50;99.90;;;;;;5248281;28;20017;-77
2023/01/06 19:33:56;;;;;;;14.95;10.55;;;7.40;99.90;;;;;;5247124;28;20067;-80
2023/01/06 19:36:36;;;;;;;16.17;11.40;;;7.60;99.90;;;;;;5247009;28;20028;-77
2023/01/06 19:39:22;;;;;;;16.98;10.18;;;7.40;99.90;;;;;;5248092;28;20062;-83
2023/01/06 19:42:08;;;;;;;30.50;18.80;;;7.30;99.90;;;;;;5249158;28;20086;-83
2023/01/06 19:44:40;;;;;;;19.08;12.80;;;7.60;99.90;;;;;;5247970;28;20029;-84
2023/01/06 19:47:37;;;;;;;16.70;11.73;;;7.60;99.90;;;;;;5246798;28;20027;-81
2023/01/06 19:50:19;;;;;;;16.30;11.02;;;7.80;99.90;;;;;;5248184;28;20115;-81
2023/01/06 19:52:57;;;;;;;24.83;16.73;;;7.80;99.90;;;;;;5246752;28;20031;-80
2023/01/06 19:55:29;;;;;;;27.05;16.83;;;8.10;99.90;;;;;;5248231;28;20032;-79
2023/01/06 19:58:16;;;;;;;28.45;16.65;;;7.60;99.90;;;;;;5248232;28;20353;-81
2023/01/06 20:00:51;;;;;;;27.75;18.10;;;7.90;99.90;;;;;;5246852;28;20086;-82
2023/01/06 20:03:27;;;;;;;15.35;10.98;;;8.00;99.90;;;;;;5248102;28;20043;-81
2023/01/06 20:05:58;;;;;;;14.05;10.05;;;7.80;99.90;;;;;;5247984;28;20029;-81
2023/01/06 20:08:29;;;;;;;15.45;9.25;;;7.90;99.90;;;;;;5246914;28;20074;-81
2023/01/06 20:11:00;;;;;;;25.08;15.55;;;7.90;99.90;;;;;;5246642;28;20448;-80
2023/01/06 20:13:31;;;;;;;13.07;7.82;;;7.80;99.90;;;;;;5247842;28;20028;-81
2023/01/06 20:16:03;;;;;;;15.68;7.55;;;7.70;99.90;;;;;;5248346;28;20431;-79
2023/01/06 20:18:34;;;;;;;15.18;9.70;;;7.90;99.90;;;;;;5247959;28;20058;-82
2023/01/06 20:21:06;;;;;;;19.42;11.57;;;7.90;99.90;;;;;;5247705;28;20056;-80
2023/01/06 20:23:36;;;;;;;18.27;13.65;;;7.80;99.90;;;;;;5248005;28;20032;-83
2023/01/06 20:26:07;;;;;;;18.92;11.95;;;7.80;99.90;;;;;;5247840;28;20077;-81
2023/01/06 20:28:38;;;;;;;10.95;6.72;;;7.70;99.90;;;;;;5247711;28;20543;-78
2023/01/06 20:31:09;;;;;;;13.35;8.27;;;7.70;99.90;;;;;;5246395;28;20028;-80
2023/01/06 20:33:40;;;;;;;12.23;8.70;;;7.70;99.90;;;;;;5247724;28;20406;-81
2023/01/06 20:36:15;;;;;;;27.13;18.98;;;7.60;99.90;;;;;;5246525;28;20357;-82
2023/01/06 20:38:46;;;;;;;14.18;11.13;;;7.60;99.90;;;;;;5262905;28;20080;-83
2023/01/06 20:41:17;;;;;;;8.60;6.28;;;7.10;99.90;;;;;;5247708;28;20052;-86
2023/01/06 20:43:48;;;;;;;15.10;10.15;;;6.90;99.90;;;;;;5245891;28;20063;-83
2023/01/06 20:46:19;;;;;;;15.20;7.30;;;7.20;99.90;;;;;;5247167;28;20033;-78
2023/01/06 20:48:50;;;;;;;18.83;13.55;;;7.30;99.90;;;;;;5251484;28;20043;-79
2023/01/06 20:51:20;;;;;;;13.35;7.95;;;7.40;99.90;;;;;;5251416;28;20017;-77
2023/01/06 20:53:51;;;;;;;12.18;7.65;;;7.50;99.90;;;;;;5251340;28;20036;-82
2023/01/06 20:56:23;;;;;;;147.43;85.30;;;7.30;99.90;;;;;;5266869;28;20120;-81
2023/01/06 20:58:54;;;;;;;54.10;33.53;;;7.10;99.90;;;;;;5249883;28;20557;-78
2023/01/06 21:01:24;;;;;;;82.28;55.42;;;7.50;99.90;;;;;;5249739;28;20028;-79
2023/01/06 21:03:55;;;;;;;30.30;18.83;;;7.50;99.90;;;;;;5250778;28;20024;-79
2023/01/06 21:06:26;;;;;;;14.77;10.23;;;7.70;99.90;;;;;;5249828;28;20139;-80
2023/01/06 21:08:57;;;;;;;14.73;11.23;;;7.40;99.90;;;;;;5250979;28;20107;-80
2023/01/06 21:11:28;;;;;;;13.80;6.75;;;7.30;99.90;;;;;;5250900;28;20020;-79
2023/01/06 21:13:59;;;;;;;18.63;9.60;;;7.40;99.90;;;;;;5249535;28;20028;-78
2023/01/06 21:16:31;;;;;;;18.17;10.73;;;7.40;99.90;;;;;;5249518;28;20476;-80